Time;durP1;ratioP1;P1;durP2;ratioP2;P2;SDS_P1;SDS_P2;PMS_P1;PMS_P2;Temp;Humidity;BMP_temperature;BMP_pressure;BME280_temperature;BME280_humidity;BME280_pressure;Samples;Min_cycle;Max_cycle;Signal;HPM_P1;HPM_P2
2022/08/17 00:00:50;;;;;;;1.52;0.98;;;;;;;21.07;88.24;100421.41;5024577;28;20037;-88
2022/08/17 00:03:15;;;;;;;3.92;1.45;;;;;;;21.08;87.61;100424.84;5009524;28;20037;-86
2022/08/17 00:05:46;;;;;;;3.92;1.20;;;;;;;21.08;87.18;100419.56;5040665;28;20047;-88
2022/08/17 00:08:15;;;;;;;3.58;1.35;;;;;;;21.08;87.19;100425.66;5042323;28;20045;-86
2022/08/17 00:10:44;;;;;;;4.20;1.30;;;;;;;21.07;86.66;100418.75;5049375;28;20057;-84
2022/08/17 00:13:16;;;;;;;3.20;1.00;;;;;;;21.08;86.93;100422.22;5035742;28;20029;-84
2022/08/17 00:15:42;;;;;;;3.95;1.30;;;;;;;21.05;87.46;100426.09;5030301;28;20026;-85
2022/08/17 00:18:08;;;;;;;4.72;1.13;;;;;;;21.06;87.53;100427.72;5038257;28;20044;-84
2022/08/17 00:20:33;;;;;;;3.00;1.42;;;;;;;21.04;88.03;100431.59;5028135;28;20026;-89
2022/08/17 00:23:05;;;;;;;2.05;1.08;;;;;;;20.94;87.85;100428.59;5010855;28;20056;-88
2022/08/17 00:25:30;;;;;;;8.23;1.27;;;;;;;20.94;88.00;100423.31;5024682;28;20034;-88
2022/08/17 00:27:55;;;;;;;2.88;1.38;;;;;;;21.00;88.36;100423.28;5012632;28;20079;-87
2022/08/17 00:30:21;;;;;;;4.75;2.33;;;;;;;20.99;88.25;100423.47;5017552;28;20037;-86
2022/08/17 00:32:46;;;;;;;3.80;1.60;;;;;;;20.98;88.43;100419.22;5029778;28;20200;-91
2022/08/17 00:35:16;;;;;;;4.30;2.00;;;;;;;21.00;88.28;100423.28;5026043;28;20044;-88
2022/08/17 00:37:42;;;;;;;2.28;1.30;;;;;;;21.06;88.06;100424.25;5034449;28;20073;-90
2022/08/17 00:40:10;;;;;;;4.50;1.50;;;;;;;21.16;87.99;100427.25;5035340;28;20057;-87
2022/08/17 00:42:35;;;;;;;5.22;1.80;;;;;;;21.18;88.01;100423.38;5034193;28;20041;-87
2022/08/17 00:45:03;;;;;;;6.28;1.58;;;;;;;21.15;87.83;100420.31;5034803;28;20040;-87
2022/08/17 00:47:29;;;;;;;3.92;1.70;;;;;;;21.17;87.00;100423.56;5016679;28;20026;-84
2022/08/17 00:49:55;;;;;;;6.97;1.27;;;;;;;21.18;87.06;100419.91;5022815;28;20061;-86
2022/08/17 00:52:26;;;;;;;4.43;1.38;;;;;;;21.15;87.22;100426.44;5015891;28;20112;-87
2022/08/17 00:54:53;;;;;;;4.90;1.67;;;;;;;21.12;86.82;100418.09;5002034;28;20037;-88
2022/08/17 00:57:28;;;;;;;2.88;1.45;;;;;;;21.08;87.56;100424.84;5013076;28;20398;-88
2022/08/17 01:00:01;;;;;;;4.68;1.75;;;;;;;21.07;87.23;100417.94;5006961;28;20027;-86
2022/08/17 01:02:28;;;;;;;4.78;1.65;;;;;;;21.05;88.05;100417.34;5007923;28;20117;-88
2022/08/17 01:04:55;;;;;;;5.50;1.95;;;;;;;21.03;88.74;100422.03;5012126;28;20095;-88
2022/08/17 01:07:24;;;;;;;6.43;1.98;;;;;;;21.01;88.29;100413.50;5004595;28;20037;-90
2022/08/17 01:09:50;;;;;;;4.57;1.50;;;;;;;21.02;88.22;100409.81;4999735;28;20381;-87
2022/08/17 01:12:16;;;;;;;3.83;1.40;;;;;;;20.98;87.84;100409.44;5012130;28;20038;-91
2022/08/17 01:14:41;;;;;;;3.40;1.58;;;;;;;20.96;88.04;100413.31;5011853;28;20391;-94
2022/08/17 01:17:08;;;;;;;2.40;1.20;;;;;;;20.95;88.64;100409.84;5001572;28;20094;-88
2022/08/17 01:19:38;;;;;;;2.70;1.45;;;;;;;20.96;88.34;100405.38;5009661;28;20026;-88
2022/08/17 01:22:22;;;;;;;8.18;1.77;;;;;;;20.94;87.93;100415.38;5006564;28;20033;-90
2022/08/17 01:24:57;;;;;;;4.70;1.83;;;;;;;20.82;89.60;100413.38;4999699;28;20481;-86
2022/08/17 01:27:23;;;;;;;5.88;1.85;;;;;;;20.65;90.76;100419.41;5002934;28;20170;-88
2022/08/17 01:29:56;;;;;;;4.38;1.60;;;;;;;20.58;91.75;100421.28;5005335;28;20108;-87
2022/08/17 01:32:22;;;;;;;2.70;1.40;;;;;;;20.45;92.40;100422.13;5008530;28;20068;-90
2022/08/17 01:34:49;;;;;;;4.07;2.10;;;;;;;20.39;92.63;100425.63;5006755;28;20223;-87
2022/08/17 01:37:15;;;;;;;3.58;1.70;;;;;;;20.32;92.68;100420.31;5012989;28;20633;-88
2022/08/17 01:39:55;;;;;;;3.65;1.75;;;;;;;20.33;91.78;100421.94;5008415;28;20037;-88
2022/08/17 01:42:49;;;;;;;6.05;2.08;;;;;;;20.42;91.02;100414.63;5001930;28;20103;-89
2022/08/17 01:45:39;;;;;;;5.20;2.10;;;;;;;20.52;91.55;100415.78;5003901;28;20430;-87
2022/08/17 01:48:05;;;;;;;5.78;1.70;;;;;;;20.58;91.67;100414.16;5004503;28;20034;-89
2022/08/17 01:50:33;;;;;;;3.42;1.63;;;;;;;20.60;92.32;100413.94;5003302;28;20042;-89
2022/08/17 01:53:08;;;;;;;5.90;2.40;;;;;;;20.58;92.19;100416.78;5002308;28;20030;-90
2022/08/17 01:55:41;;;;;;;6.70;2.05;;;;;;;20.57;90.97;100411.72;5008470;28;20034;-87
2022/08/17 01:58:08;;;;;;;6.00;1.75;;;;;;;20.61;91.89;100403.13;5022298;28;20064;-87
2022/08/17 02:00:39;;;;;;;3.13;1.73;;;;;;;20.61;92.05;100403.13;5018485;28;20389;-87
2022/08/17 02:03:06;;;;;;;3.25;1.65;;;;;;;20.52;92.73;100402.56;5031704;28;20045;-92
2022/08/17 02:05:32;;;;;;;4.47;1.70;;;;;;;20.44;93.39;100396.69;5024077;28;20036;-87
2022/08/17 02:07:58;;;;;;;3.35;1.83;;;;;;;20.33;94.14;100394.66;5018330;28;20033;-85
2022/08/17 02:10:25;;;;;;;4.65;1.92;;;;;;;20.24;94.96;100395.94;5027240;28;20037;-87
2022/08/17 02:12:50;;;;;;;3.70;1.85;;;;;;;20.08;95.58;100395.38;5024897;28;20116;-88
2022/08/17 02:15:16;;;;;;;2.95;1.70;;;;;;;20.00;95.16;100394.78;5027403;28;20116;-87
2022/08/17 02:17:41;;;;;;;3.65;2.03;;;;;;;20.07;94.99;100383.19;5011893;28;20036;-87
2022/08/17 02:20:11;;;;;;;3.90;1.75;;;;;;;20.07;95.66;100374.44;5013747;28;20034;-86
2022/08/17 02:22:41;;;;;;;6.65;1.98;;;;;;;20.08;95.91;100382.16;5029119;28;20052;-91
2022/08/17 02:25:09;;;;;;;7.78;2.30;;;;;;;20.04;96.32;100380.13;5031820;28;20035;-88
2022/08/17 02:27:35;;;;;;;7.50;2.53;;;;;;;20.14;96.40;100380.50;5028604;28;20037;-89
2022/08/17 02:30:05;;;;;;;5.65;2.00;;;;;;;20.14;96.32;100368.09;5030740;28;20030;-88
2022/08/17 02:32:31;;;;;;;2.78;2.05;;;;;;;20.14;96.71;100364.66;5029415;28;20037;-87
2022/08/17 02:34:57;;;;;;;4.05;2.30;;;;;;;20.10;96.91;100368.72;5034626;28;20048;-91
2022/08/17 02:37:23;;;;;;;3.50;1.70;;;;;;;20.03;97.58;100373.22;5032105;28;20495;-88
2022/08/17 02:39:49;;;;;;;2.45;1.80;;;;;;;19.91;98.13;100364.31;5035543;28;20030;-85
2022/08/17 02:42:14;;;;;;;6.13;1.65;;;;;;;19.82;98.84;100367.19;5033883;28;20052;-88
2022/08/17 02:44:40;;;;;;;6.15;2.30;;;;;;;19.79;98.85;100366.78;5049567;28;20066;-85
2022/08/17 02:47:08;;;;;;;5.28;2.65;;;;;;;19.76;99.28;100364.56;5022416;28;20048;-83
2022/08/17 02:49:33;;;;;;;5.63;2.85;;;;;;;19.74;99.42;100366.59;5027937;28;20043;-84
2022/08/17 02:52:03;;;;;;;5.68;2.65;;;;;;;19.72;99.26;100366.00;5009804;28;20489;-84
2022/08/17 02:54:28;;;;;;;5.05;2.58;;;;;;;19.77;99.60;100366.19;5031508;28;20053;-87
2022/08/17 02:56:54;;;;;;;7.38;2.67;;;;;;;19.82;99.34;100366.38;5018913;28;20660;-93
2022/08/17 02:59:19;;;;;;;6.53;2.95;;;;;;;19.92;98.32;100358.81;5011004;28;20033;-89
2022/08/17 03:01:45;;;;;;;8.75;2.50;;;;;;;20.00;97.75;100355.13;5016407;28;20034;-87
2022/08/17 03:04:10;;;;;;;5.32;2.85;;;;;;;20.07;96.80;100353.28;5027380;28;20095;-89
2022/08/17 03:06:36;;;;;;;4.78;3.13;;;;;;;20.08;96.53;100355.72;5023399;28;20444;-92
2022/08/17 03:09:02;;;;;;;8.93;2.38;;;;;;;20.09;97.05;100361.81;5018626;28;20048;-89
2022/08/17 03:11:28;;;;;;;8.38;3.00;;;;;;;20.09;97.33;100367.09;5023565;28;20040;-89
2022/08/17 03:13:53;;;;;;;7.72;3.08;;;;;;;20.11;97.52;100370.34;5010122;28;20029;-92
2022/08/17 03:16:18;;;;;;;5.28;3.17;;;;;;;20.10;97.18;100366.09;5028385;28;20595;-85
2022/08/17 03:18:44;;;;;;;7.65;3.03;;;;;;;20.11;96.94;100368.53;5028732;28;20112;-88
2022/08/17 03:21:10;;;;;;;8.30;2.60;;;;;;;20.06;96.87;100370.16;5010995;28;20051;-88
2022/08/17 03:23:39;;;;;;;7.15;2.63;;;;;;;20.04;96.73;100374.84;5028498;28;20118;-87
2022/08/17 03:26:09;;;;;;;6.43;2.45;;;;;;;20.04;96.09;100378.31;5022772;28;20037;-89
2022/08/17 03:28:39;;;;;;;6.63;2.10;;;;;;;20.00;96.04;100378.94;5020417;28;20037;-88
2022/08/17 03:31:06;;;;;;;5.43;1.70;;;;;;;19.96;95.17;100388.28;5020124;28;20042;-92
2022/08/17 03:33:32;;;;;;;4.78;2.40;;;;;;;19.95;95.44;100389.31;5022517;28;20041;-84
2022/08/17 03:35:58;;;;;;;5.65;1.98;;;;;;;19.95;95.55;100399.88;5042290;28;20020;-82
2022/08/17 03:38:24;;;;;;;4.28;1.95;;;;;;;19.92;95.56;100398.47;5046685;28;20026;-87
2022/08/17 03:40:51;;;;;;;4.38;1.77;;;;;;;19.88;96.26;100399.91;5027281;28;20029;-83
2022/08/17 03:43:18;;;;;;;6.32;2.30;;;;;;;19.77;96.46;100392.63;5040015;28;20055;-85
2022/08/17 03:57:03;;;;;;;6.45;3.50;;;;;;;19.79;96.57;100387.94;5018220;28;20638;-85
2022/08/17 03:59:30;;;;;;;5.57;2.78;;;;;;;19.85;96.67;100387.09;5010147;28;20053;-85
2022/08/17 04:01:59;;;;;;;4.55;3.08;;;;;;;19.92;96.41;100382.59;5030607;28;20033;-93
2022/08/17 04:04:27;;;;;;;8.48;3.13;;;;;;;19.98;96.73;100391.53;5008862;28;20033;-91
2022/08/17 04:06:53;;;;;;;5.63;3.35;;;;;;;19.99;96.83;100388.69;5000612;28;20124;-90
2022/08/17 04:09:20;;;;;;;3.63;2.90;;;;;;;19.94;97.21;100385.84;5009253;28;20116;-89
2022/08/17 04:11:46;;;;;;;5.72;3.17;;;;;;;19.95;97.27;100381.38;5029955;28;20098;-88
2022/08/17 04:14:12;;;;;;;6.68;3.67;;;;;;;19.94;97.05;100385.03;5004900;28;20090;-89
2022/08/17 04:16:37;;;;;;;6.68;3.63;;;;;;;19.94;97.51;100391.13;5014159;28;20034;-86
2022/08/17 04:19:04;;;;;;;5.22;3.58;;;;;;;19.98;97.50;100396.81;5027913;28;20037;-89
2022/08/17 04:21:30;;;;;;;6.18;3.70;;;;;;;20.00;97.93;100390.31;5025052;28;20018;-87
2022/08/17 04:23:57;;;;;;;4.88;3.38;;;;;;;19.97;98.24;100406.59;5031298;28;20033;-89
2022/08/17 04:26:22;;;;;;;6.07;3.65;;;;;;;19.99;98.23;100415.13;5027268;28;20120;-85
2022/08/17 04:28:48;;;;;;;7.78;3.38;;;;;;;20.00;98.03;100416.75;5015582;28;20112;-90
2022/08/17 04:31:14;;;;;;;6.85;3.65;;;;;;;20.01;98.07;100420.22;5002423;28;20026;-89
2022/08/17 04:33:44;;;;;;;4.75;3.00;;;;;;;19.99;97.67;100423.06;5023836;28;20033;-92
2022/08/17 04:36:12;;;;;;;4.72;2.92;;;;;;;20.00;97.52;100419.41;5027878;28;20142;-89
2022/08/17 04:38:40;;;;;;;7.93;2.40;;;;;;;19.97;97.26;100411.06;5007997;28;20025;-89
2022/08/17 04:43:54;;;;;;;4.03;2.40;;;;;;;19.85;97.05;100424.09;5019696;28;20068;-92
2022/08/17 04:46:23;;;;;;;6.45;2.17;;;;;;;19.80;96.92;100422.09;4996993;28;20288;-88
2022/08/17 04:48:51;;;;;;;5.88;2.25;;;;;;;19.80;96.69;100421.28;5018614;28;20044;-87
2022/08/17 04:51:27;;;;;;;5.60;2.10;;;;;;;19.83;96.63;100420.88;5010522;28;20129;-89
2022/08/17 04:54:00;;;;;;;5.15;2.60;;;;;;;19.84;96.37;100417.22;5031218;28;20033;-91
2022/08/17 04:56:27;;;;;;;5.70;3.10;;;;;;;19.92;96.68;100426.75;5031319;28;20057;-85
2022/08/17 04:58:58;;;;;;;4.35;2.20;;;;;;;19.96;96.77;100418.19;5014493;28;20032;-85
2022/08/17 05:01:26;;;;;;;7.55;2.47;;;;;;;19.99;96.47;100420.41;5000599;28;20030;-89
2022/08/17 05:03:55;;;;;;;5.25;2.22;;;;;;;20.04;96.11;100422.44;5029543;28;20132;-87
2022/08/17 05:06:20;;;;;;;4.80;3.30;;;;;;;20.06;95.61;100431.00;5027059;28;20166;-86
2022/08/17 05:08:46;;;;;;;5.35;3.50;;;;;;;20.10;96.21;100433.00;5046917;28;20424;-85
2022/08/17 05:11:11;;;;;;;3.92;3.50;;;;;;;20.20;96.04;100436.03;5021752;28;20041;-88
2022/08/17 05:13:37;;;;;;;5.57;4.00;;;;;;;20.24;97.08;100430.34;5015192;28;20026;-88
2022/08/17 05:16:04;;;;;;;7.20;3.67;;;;;;;20.25;97.44;100437.25;5028321;28;20036;-92
2022/08/17 05:18:30;;;;;;;6.15;3.13;;;;;;;20.24;97.69;100443.56;5034141;28;20032;-86
2022/08/17 05:20:56;;;;;;;7.63;3.58;;;;;;;20.32;96.80;100441.47;5028511;28;20041;-89
2022/08/17 05:23:25;;;;;;;4.55;2.97;;;;;;;20.44;96.58;100444.31;5010214;28;20029;-87
2022/08/17 05:26:01;;;;;;;6.18;3.20;;;;;;;20.49;95.98;100449.81;5020252;28;20033;-89
2022/08/17 05:28:26;;;;;;;;;;;;;;;20.38;93.60;100442.50;4995311;28;20032;-91
2022/08/17 05:30:52;;;;;;;;;;;;;;;20.32;93.51;100457.34;5023271;28;20368;-89
2022/08/17 05:33:21;;;;;;;4.28;2.70;;;;;;;20.39;95.19;100449.44;5026044;28;19920;-85
2022/08/17 05:35:50;;;;;;;3.85;2.15;;;;;;;20.38;95.12;100443.31;5012277;28;20491;-92
2022/08/17 05:38:18;;;;;;;6.63;2.05;;;;;;;20.36;95.00;100442.69;5005015;28;20093;-89
2022/08/17 05:40:44;;;;;;;4.25;2.83;;;;;;;20.34;94.65;100435.97;5002301;28;20029;-89
2022/08/17 05:43:11;;;;;;;4.55;2.70;;;;;;;20.39;94.62;100446.78;5014814;28;20033;-92
2022/08/17 05:45:41;;;;;;;6.40;2.97;;;;;;;20.42;94.18;100435.78;5009971;28;20034;-92
2022/08/17 05:48:09;;;;;;;6.22;2.63;;;;;;;20.45;93.82;100422.13;5013578;28;20053;-89
2022/08/17 05:50:53;;;;;;;3.45;2.92;;;;;;;20.48;93.20;100424.38;5031035;28;20030;-88
2022/08/17 05:53:50;;;;;;;4.03;2.55;;;;;;;20.62;93.68;100425.94;5019295;28;20030;-91
2022/08/17 05:56:41;;;;;;;6.22;2.30;;;;;;;20.80;92.12;100422.56;4946198;28;20504;-85
2022/08/17 05:59:32;;;;;;;5.47;3.05;;;;;;;20.94;91.95;100423.31;4912578;29;20051;-89
2022/08/17 06:02:08;;;;;;;3.95;3.40;;;;;;;21.09;92.46;100426.47;4926472;29;20138;-89
2022/08/17 06:04:45;;;;;;;3.83;3.15;;;;;;;21.17;91.85;100416.44;4927955;29;20456;-89
2022/08/17 06:07:16;;;;;;;10.40;3.53;;;;;;;21.27;91.61;100415.19;4932645;29;20067;-86
2022/08/17 06:10:13;;;;;;;5.72;3.60;;;;;;;21.36;90.22;100421.81;4933906;29;20036;-88
2022/08/17 06:13:00;;;;;;;4.03;3.40;;;;;;;21.46;91.09;100417.66;4930475;29;20059;-91
2022/08/17 06:15:28;;;;;;;7.25;3.13;;;;;;;21.52;90.05;100423.94;4914115;29;20078;-86
2022/08/17 06:17:59;;;;;;;6.82;2.65;;;;;;;21.57;89.61;100424.09;4933370;29;20055;-88
2022/08/17 06:20:28;;;;;;;8.25;3.20;;;;;;;21.67;88.63;100428.91;4933940;29;20042;-85
2022/08/17 06:23:03;;;;;;;4.13;1.98;;;;;;;21.77;88.38;100429.19;4914722;29;20047;-86
2022/08/17 06:25:41;;;;;;;6.18;2.67;;;;;;;21.83;87.59;100423.03;4922485;29;20099;-83
2022/08/17 06:28:26;;;;;;;5.18;2.20;;;;;;;21.92;87.26;100429.66;4914144;29;20450;-87
2022/08/17 06:30:58;;;;;;;5.70;2.20;;;;;;;22.04;87.81;100435.91;4931526;28;20040;-87
2022/08/17 06:33:36;;;;;;;4.55;2.05;;;;;;;22.04;86.88;100438.56;4963676;28;20050;-91
2022/08/17 06:36:16;;;;;;;2.30;1.85;;;;;;;22.11;87.04;100441.97;4983493;28;20038;-93
2022/08/17 06:38:58;;;;;;;5.85;2.00;;;;;;;22.12;85.93;100442.78;5003747;28;20042;-89
2022/08/17 06:41:37;;;;;;;5.80;1.70;;;;;;;22.14;86.36;100441.53;5011111;28;20030;-89
2022/08/17 06:44:09;;;;;;;3.50;2.00;;;;;;;22.22;87.02;100439.59;5018813;28;20509;-89
2022/08/17 06:46:39;;;;;;;10.82;1.90;;;;;;;22.32;87.33;100447.84;5003066;28;20502;-89
2022/08/17 06:49:20;;;;;;;4.85;2.10;;;;;;;22.43;85.13;100445.25;5008447;28;20112;-88
2022/08/17 06:51:54;;;;;;;4.72;1.73;;;;;;;22.54;85.26;100446.38;4992860;28;20068;-91
2022/08/17 06:54:46;;;;;;;3.97;1.85;;;;;;;22.61;84.82;100449.75;5011818;28;20416;-89
2022/08/17 06:57:44;;;;;;;7.00;2.38;;;;;;;22.68;84.74;100453.13;5029942;28;20045;-89
2022/08/17 07:00:22;;;;;;;5.38;2.15;;;;;;;22.79;84.88;100456.88;5010391;28;20096;-88
2022/08/17 07:02:55;;;;;;;5.78;1.83;;;;;;;22.90;85.16;100455.31;5015705;28;20057;-88
2022/08/17 07:05:24;;;;;;;5.47;2.10;;;;;;;23.06;84.89;100466.13;5030825;28;20051;-87
2022/08/17 07:08:05;;;;;;;7.95;3.03;;;;;;;23.19;83.48;100462.44;5022545;28;20029;-90
2022/08/17 07:10:38;;;;;;;4.57;2.50;;;;;;;23.32;83.67;100459.59;5042685;28;20038;-84
2022/08/17 07:13:49;;;;;;;7.13;2.28;;;;;;;23.33;81.70;100461.22;5049667;28;20351;-83
2022/08/17 07:16:26;;;;;;;5.80;2.33;;;;;;;23.37;82.67;100453.59;5030007;28;20042;-85
2022/08/17 07:18:55;;;;;;;5.82;2.33;;;;;;;23.47;83.80;100451.19;5027770;28;20110;-85
2022/08/17 07:21:23;;;;;;;6.03;2.67;;;;;;;23.59;82.81;100457.38;5028989;28;20030;-86
2022/08/17 07:24:09;;;;;;;5.70;2.85;;;;;;;23.70;81.42;100455.72;5026104;28;20037;-85
2022/08/17 07:26:37;;;;;;;5.10;2.25;;;;;;;23.88;82.82;100457.47;5021386;28;20444;-86
2022/08/17 07:29:03;;;;;;;7.50;2.50;;;;;;;23.98;82.42;100455.03;5005797;28;20124;-86
2022/08/17 07:31:32;;;;;;;4.45;2.35;;;;;;;24.05;82.07;100450.41;5010566;28;20104;-87
2022/08/17 07:34:16;;;;;;;4.40;2.20;;;;;;;24.19;81.10;100456.28;5007226;28;20037;-85
2022/08/17 07:36:42;;;;;;;4.03;2.30;;;;;;;24.32;82.23;100470.19;5009644;28;20635;-86
2022/08/17 07:39:09;;;;;;;7.38;2.65;;;;;;;24.43;81.70;100469.34;5011421;28;20033;-90
2022/08/17 07:41:39;;;;;;;5.22;2.60;;;;;;;24.46;82.13;100471.56;5029076;28;20159;-88
2022/08/17 07:44:11;;;;;;;5.03;2.83;;;;;;;24.53;82.26;100462.63;5024449;28;20030;-87
2022/08/17 07:49:39;;;;;;;8.15;3.10;;;;;;;24.76;82.36;100481.16;5033655;28;20068;-85
2022/08/17 07:52:24;;;;;;;8.40;2.83;;;;;;;24.79;82.12;100476.19;5030301;28;20048;-89
2022/08/17 07:54:50;;;;;;;8.73;3.75;;;;;;;24.84;83.09;100480.00;5029545;28;20079;-85
2022/08/17 07:57:18;;;;;;;11.98;3.63;;;;;;;24.92;83.17;100488.41;5009408;28;20049;-86
2022/08/17 07:59:59;;;;;;;6.55;2.92;;;;;;;25.12;81.83;100480.81;5024933;28;20485;-85
2022/08/17 08:02:24;;;;;;;8.57;3.67;;;;;;;25.24;81.67;100483.41;5026851;28;20040;-86
2022/08/17 08:04:59;;;;;;;8.57;3.20;;;;;;;25.34;81.16;100472.13;5029630;28;20037;-87
2022/08/17 08:07:36;;;;;;;5.00;2.58;;;;;;;25.45;81.35;100480.06;5030268;28;20030;-87
2022/08/17 08:10:07;;;;;;;6.68;3.17;;;;;;;25.56;80.25;100481.00;5031107;28;20492;-87
2022/08/17 08:12:36;;;;;;;8.98;3.38;;;;;;;25.67;80.42;100480.16;5030094;28;20095;-89
2022/08/17 08:15:19;;;;;;;10.05;3.33;;;;;;;25.83;78.49;100467.84;5033385;28;20128;-87
2022/08/17 08:18:01;;;;;;;6.82;2.60;;;;;;;25.77;78.79;100472.31;5012885;28;20480;-87
2022/08/17 08:20:48;;;;;;;11.32;2.83;;;;;;;25.78;77.03;100476.59;5013422;28;20394;-82
2022/08/17 08:23:29;;;;;;;8.23;2.83;;;;;;;25.84;78.02;100480.13;5023222;28;20077;-85
2022/08/17 08:26:03;;;;;;;8.70;2.95;;;;;;;25.92;78.91;100477.06;5024515;28;20553;-85
2022/08/17 08:28:44;;;;;;;5.07;3.05;;;;;;;26.15;78.86;100477.88;5019279;28;20032;-89
2022/08/17 08:31:23;;;;;;;6.25;3.08;;;;;;;26.60;77.83;100478.47;5017520;28;20030;-83
2022/08/17 08:34:03;;;;;;;6.75;3.22;;;;;;;26.90;75.73;100463.84;5026758;28;20687;-87
2022/08/17 08:36:43;;;;;;;8.32;3.10;;;;;;;26.87;74.30;100464.34;5032308;28;20666;-88
2022/08/17 08:39:34;;;;;;;8.32;3.03;;;;;;;26.99;73.04;100468.50;5029038;28;20029;-86
2022/08/17 08:42:12;;;;;;;6.28;2.80;;;;;;;27.09;72.71;100462.44;5031338;28;20084;-83
2022/08/17 08:44:58;;;;;;;5.30;2.38;;;;;;;27.08;74.21;100455.47;5013137;28;20681;-86
2022/08/17 08:47:53;;;;;;;5.60;2.70;;;;;;;26.95;72.79;100472.69;5022378;28;20092;-86
2022/08/17 08:50:35;;;;;;;3.03;2.67;;;;;;;26.62;75.38;100479.03;5006173;28;20041;-89
2022/08/17 08:53:28;;;;;;;6.57;2.40;;;;;;;26.55;73.78;100475.75;5012088;28;20466;-84
2022/08/17 08:56:05;;;;;;;8.77;2.80;;;;;;;26.50;73.53;100473.00;5025373;28;20048;-88
2022/08/17 08:58:49;;;;;;;5.20;2.95;;;;;;;26.38;72.19;100472.34;5011536;28;20025;-86
2022/08/17 09:01:26;;;;;;;6.80;3.08;;;;;;;26.32;73.54;100457.31;5024561;28;20073;-84
2022/08/17 09:04:10;;;;;;;7.18;2.38;;;;;;;26.61;74.24;100461.41;5031686;28;20029;-89
2022/08/17 09:06:46;;;;;;;4.85;2.35;;;;;;;26.89;74.26;100463.03;5024882;28;20049;-87
2022/08/17 09:09:39;;;;;;;4.68;2.42;;;;;;;27.19;73.70;100469.75;5019453;28;20025;-87
2022/08/17 09:12:12;;;;;;;8.23;2.63;;;;;;;26.88;73.59;100460.63;5030842;28;20049;-85
2022/08/17 09:14:50;;;;;;;6.30;2.83;;;;;;;26.63;75.26;100459.28;5027357;28;20034;-86
2022/08/17 09:17:34;;;;;;;5.88;2.75;;;;;;;26.88;73.26;100463.28;5024775;28;20025;-83
2022/08/17 09:20:24;;;;;;;5.32;2.40;;;;;;;27.10;73.60;100461.38;5023886;28;20029;-82
2022/08/17 09:23:07;;;;;;;6.53;2.40;;;;;;;27.37;71.84;100459.50;5029106;28;20046;-87
2022/08/17 09:25:48;;;;;;;7.90;2.97;;;;;;;27.52;72.18;100455.31;5026465;28;20834;-85
2022/08/17 09:28:32;;;;;;;6.10;3.10;;;;;;;27.68;71.99;100459.75;5028246;28;20067;-86
2022/08/17 09:31:04;;;;;;;7.40;3.28;;;;;;;27.80;73.76;100465.72;4999364;28;20037;-87
2022/08/17 09:33:35;;;;;;;3.80;2.55;;;;;;;27.89;72.05;100461.47;5023666;28;20056;-87
2022/08/17 09:36:06;;;;;;;5.20;2.70;;;;;;;27.87;72.08;100468.16;5001496;28;20061;-83
2022/08/17 09:38:58;;;;;;;6.30;2.55;;;;;;;27.89;71.02;100466.00;5030552;28;20034;-82
2022/08/17 09:41:27;;;;;;;6.25;3.22;;;;;;;28.00;72.21;100465.00;5029625;28;20037;-86
2022/08/17 09:43:55;;;;;;;4.97;2.88;;;;;;;27.93;70.90;100467.09;5023952;28;20040;-91
2022/08/17 09:46:28;;;;;;;4.80;2.28;;;;;;;27.57;71.08;100453.47;5034264;28;20036;-84
2022/08/17 09:49:02;;;;;;;5.88;2.50;;;;;;;27.58;70.46;100454.28;5011647;28;20061;-86
2022/08/17 09:51:47;;;;;;;3.35;2.38;;;;;;;27.59;73.25;100455.94;5012232;28;20504;-86
2022/08/17 09:54:26;;;;;;;;;;;;;;;27.72;70.56;100463.53;5028070;28;20072;-85
2022/08/17 09:57:11;;;;;;;4.63;2.70;;;;;;;27.71;71.38;100476.09;5031668;28;20380;-85
2022/08/17 09:59:51;;;;;;;8.38;2.95;;;;;;;27.69;70.81;100478.22;5008422;28;20033;-84
2022/08/17 10:02:53;;;;;;;4.57;1.98;;;;;;;27.74;69.31;100466.75;5008330;28;20069;-85
2022/08/17 10:05:28;;;;;;;5.90;2.35;;;;;;;27.69;70.08;100472.06;5014171;28;20029;-88
2022/08/17 10:08:07;;;;;;;5.57;2.97;;;;;;;27.84;71.53;100474.84;5026928;28;20061;-87
2022/08/17 10:10:37;;;;;;;7.53;2.58;;;;;;;27.90;68.94;100462.28;5013794;28;21435;-82
2022/08/17 10:13:02;;;;;;;7.50;2.60;;;;;;;27.91;69.42;100470.03;5025147;28;20026;-83
2022/08/17 10:15:47;;;;;;;5.28;2.35;;;;;;;27.93;69.47;100461.75;5026969;28;20056;-88
2022/08/17 10:18:46;;;;;;;4.53;2.10;;;;;;;27.80;67.78;100452.34;5031596;28;20041;-86
2022/08/17 10:26:55;;;;;;;4.30;1.88;;;;;;;27.53;69.80;100446.22;5029888;28;20503;-90
2022/08/17 10:29:37;;;;;;;4.72;1.95;;;;;;;27.54;67.33;100437.13;5028104;28;20033;-83
2022/08/17 10:32:08;;;;;;;5.38;2.00;;;;;;;27.47;67.07;100442.69;5007650;28;20029;-83
2022/08/17 10:35:32;;;;;;;3.78;1.63;;;;;;;27.58;66.49;100443.56;5031063;28;20033;-84
2022/08/17 10:38:11;;;;;;;6.40;2.25;;;;;;;27.60;67.69;100446.84;4978926;28;20057;-81
2022/08/17 10:40:50;;;;;;;2.75;2.13;;;;;;;27.72;65.62;100440.22;4993722;28;20039;-84
2022/08/17 10:43:31;;;;;;;5.70;2.10;;;;;;;27.84;66.95;100447.28;4991410;28;20219;-82
2022/08/17 10:46:15;;;;;;;3.88;1.70;;;;;;;27.97;65.69;100452.94;4993296;28;20039;-82
2022/08/17 10:48:41;;;;;;;4.88;1.73;;;;;;;28.08;65.31;100443.91;4981077;28;20457;-84
2022/08/17 10:51:11;;;;;;;5.32;1.55;;;;;;;28.09;65.18;100445.53;4972435;28;20038;-83
2022/08/17 10:53:40;;;;;;;5.32;1.67;;;;;;;27.99;65.34;100432.06;4972318;28;20035;-90
2022/08/17 10:56:11;;;;;;;4.40;2.08;;;;;;;28.01;67.83;100445.19;4971973;28;20039;-86
2022/08/17 10:58:48;;;;;;;5.20;2.33;;;;;;;28.09;66.84;100436.69;4970491;28;20039;-88
2022/08/17 11:01:16;;;;;;;4.18;2.30;;;;;;;28.15;67.89;100427.59;4968845;28;20062;-87
2022/08/17 11:04:17;;;;;;;3.95;1.65;;;;;;;28.25;67.41;100435.72;4971861;28;20202;-89
2022/08/17 11:07:14;;;;;;;3.47;1.98;;;;;;;28.30;65.32;100451.81;4959614;28;20055;-84
2022/08/17 11:10:04;;;;;;;5.03;1.88;;;;;;;28.06;64.41;100437.19;5012387;28;20048;-84
2022/08/17 11:13:00;;;;;;;4.88;1.75;;;;;;;27.84;64.17;100433.88;5025081;28;20037;-87
2022/08/17 11:15:40;;;;;;;;;;;;;;;27.71;65.41;100433.28;5026932;28;20033;-85
2022/08/17 11:18:16;;;;;;;5.60;2.13;;;;;;;27.71;66.77;100433.28;5031398;28;20031;-90
2022/08/17 11:21:05;;;;;;;3.97;2.25;;;;;;;27.66;66.12;100430.56;5033944;28;20037;-90
2022/08/17 11:24:09;;;;;;;6.80;2.60;;;;;;;27.66;66.40;100435.91;5030665;28;20042;-90
2022/08/17 11:26:37;;;;;;;5.88;2.35;;;;;;;27.69;67.37;100438.06;5025959;28;20038;-89
2022/08/17 11:29:20;;;;;;;5.68;2.08;;;;;;;27.81;67.99;100437.06;5013577;28;20358;-87
2022/08/17 11:32:00;;;;;;;4.93;2.58;;;;;;;27.72;66.89;100434.06;5021731;28;20029;-84
2022/08/17 11:34:29;;;;;;;4.45;2.40;;;;;;;27.79;67.50;100423.16;5029330;28;20822;-83
2022/08/17 11:37:17;;;;;;;5.07;2.17;;;;;;;27.93;66.87;100424.28;5029472;28;20132;-90
2022/08/17 11:40:04;;;;;;;9.07;2.13;;;;;;;27.89;66.02;100421.31;4984887;28;20099;-85
2022/08/17 11:42:45;;;;;;;5.18;2.40;;;;;;;27.90;67.27;100422.91;5031113;28;20037;-84
2022/08/17 11:45:39;;;;;;;3.45;1.73;;;;;;;28.04;67.50;100424.06;5025696;28;20041;-80
2022/08/17 11:51:32;;;;;;;8.15;2.75;;;;;;;28.12;68.72;100433.47;5026212;28;20103;-84
2022/08/17 11:54:09;;;;;;;5.63;2.85;;;;;;;27.96;69.40;100429.09;5031764;28;20033;-85
2022/08/17 11:56:49;;;;;;;8.38;3.80;;;;;;;27.74;68.15;100421.25;5013402;28;20058;-86
2022/08/17 11:59:35;;;;;;;5.05;2.65;;;;;;;27.57;69.81;100415.22;4994243;28;20494;-87
2022/08/17 12:02:27;;;;;;;7.03;2.90;;;;;;;27.50;70.71;100419.97;5006923;28;20034;-83
2022/08/17 12:05:26;;;;;;;6.30;3.00;;;;;;;27.48;68.66;100408.72;4999223;28;20033;-85
2022/08/17 12:08:17;;;;;;;10.05;3.00;;;;;;;27.74;68.90;100415.88;5015145;28;20049;-85
2022/08/17 12:10:58;;;;;;;8.10;3.00;;;;;;;27.80;68.93;100412.19;5016158;28;20493;-86
2022/08/17 12:13:25;;;;;;;7.15;3.22;;;;;;;27.72;70.98;100410.00;4997330;28;20030;-84
2022/08/17 12:15:56;;;;;;;9.05;2.75;;;;;;;27.68;69.92;100420.41;4996063;28;20041;-86
2022/08/17 12:18:28;;;;;;;7.63;2.92;;;;;;;27.60;70.43;100404.81;5004505;28;20037;-87
2022/08/17 12:21:18;;;;;;;6.63;2.72;;;;;;;27.48;72.48;100400.69;5001228;28;20053;-90
2022/08/17 12:23:53;;;;;;;7.38;2.92;;;;;;;27.75;72.42;100401.44;5009357;28;20030;-85